Terminal Aerodrome Forecast
Issued by NWS

Home | Current Version | Previous Version | Text Only | Print | Product List | Glossary Off
Versions: 1 2 3 4 5 6 7 8 9 10 11 12

000
FTUS43 KGLD 241120
TAFMCK
TAF
KMCK 241120Z 2412/2512 26010KT P6SM SCT250
     FM241600 30018G28KT P6SM SCT250
     FM242300 36010KT P6SM SCT150
     FM250300 VRB04KT P6SM SCT150=

USA.gov is the U.S. government's official web portal to all federal, state and local government web resources and services.